Estación Meteorológica Peña el Pijo (Robertgarden) [ 11/12/19 03:54:12 CET ]

Fecha Hora Presion(HPa) Temp (°C) Humedad % Rocio (°C) Viento ( m/s) Direccion Lluvia 1Hora(mm) Lluvia 24H(mm) LLuvia Total(mm)
2019-May-05 01:01:34 1005.500 11.5 68 5.8         318.05
2019-May-05 02:01:29 1005.600 12.1 73 7.4         318.05
2019-May-05 03:01:41 1005.000 12.1 76 8.0         318.05
2019-May-05 04:01:42 1004.800 13.3 78 9.5         318.05
2019-May-05 05:01:42 1005.200 12.4 80 9.1         318.05
2019-May-05 06:01:45 1004.900 14.1 82 11.1         318.05
2019-May-05 07:01:39 1005.100 12.9 85 10.4         318.05
2019-May-05 08:01:36 1006.000 12.2 87 10.1         318.05
2019-May-05 09:01:17 1006.300 15.3 81 12.1         318.05
2019-May-05 10:01:44 1006.400 18.7 52 8.6         318.05
2019-May-05 11:01:35 1006.400 21.3 41 7.5         318.05
2019-May-05 12:01:55 1006.800 23.4 34 6.5         318.05
2019-May-05 13:01:51 1007.000 24.5 31 6.3         318.05
2019-May-05 14:01:59 1007.200 22.6 35 6.3         318.05
2019-May-05 15:01:37 1007.000 24.1 33 6.8 1.5 WNW     318.05
2019-May-05 16:01:49 1007.000 21.6 36 5.8         318.05
2019-May-05 17:01:57 1006.700 20.9 36 5.2         318.05
2019-May-05 18:01:47 1006.500 22.7 33 5.5         318.05
2019-May-05 19:01:53 1006.600 21.8 35 5.6         318.05
2019-May-05 20:01:35 1006.700 19.2 40 5.3         318.05
2019-May-05 21:01:54 1007.100 17.8 47 6.3         318.05
2019-May-05 22:01:39 1007.700 14.8 60 7.1         318.05
2019-May-05 23:01:52 1008.200 13.5 67 7.5         318.05

Temperatura Máxima:24°    Temperatura Mínima:11°
Presión Máxima:1008.200 Hpa    Presión Mínima:1004.800 Hpa


Volver